sensor_id;sensor_type;location;lat;lon;timestamp;temperature;humidity
21481;DHT22;10902;48.158;8.634;2022-12-22T00:02:29;6.40;99.90
21481;DHT22;10902;48.158;8.634;2022-12-22T00:05:15;6.40;99.90
21481;DHT22;10902;48.158;8.634;2022-12-22T00:08:00;6.40;99.90
21481;DHT22;10902;48.158;8.634;2022-12-22T00:10:48;6.40;99.90
21481;DHT22;10902;48.158;8.634;2022-12-22T00:13:35;6.40;99.90
21481;DHT22;10902;48.158;8.634;2022-12-22T00:16:20;6.40;99.90
21481;DHT22;10902;48.158;8.634;2022-12-22T00:19:11;6.40;99.90
21481;DHT22;10902;48.158;8.634;2022-12-22T00:21:59;6.50;99.90
21481;DHT22;10902;48.158;8.634;2022-12-22T00:24:44;6.50;99.90
21481;DHT22;10902;48.158;8.634;2022-12-22T00:27:29;6.50;99.90
21481;DHT22;10902;48.158;8.634;2022-12-22T00:30:14;6.60;99.90
21481;DHT22;10902;48.158;8.634;2022-12-22T00:32:59;6.60;99.90
21481;DHT22;10902;48.158;8.634;2022-12-22T00:35:44;6.60;99.90
21481;DHT22;10902;48.158;8.634;2022-12-22T00:38:28;6.60;99.90
21481;DHT22;10902;48.158;8.634;2022-12-22T00:41:12;6.60;99.90
21481;DHT22;10902;48.158;8.634;2022-12-22T00:43:56;6.50;99.90
21481;DHT22;10902;48.158;8.634;2022-12-22T00:46:42;6.50;99.90
21481;DHT22;10902;48.158;8.634;2022-12-22T00:49:28;6.40;99.90
21481;DHT22;10902;48.158;8.634;2022-12-22T00:52:15;6.40;99.90
21481;DHT22;10902;48.158;8.634;2022-12-22T00:54:59;6.40;99.90
21481;DHT22;10902;48.158;8.634;2022-12-22T00:57:44;6.50;99.90
21481;DHT22;10902;48.158;8.634;2022-12-22T01:00:28;6.40;99.90
21481;DHT22;10902;48.158;8.634;2022-12-22T01:03:13;6.40;99.90
21481;DHT22;10902;48.158;8.634;2022-12-22T01:05:59;6.40;99.90
21481;DHT22;10902;48.158;8.634;2022-12-22T01:08:45;6.40;99.90
21481;DHT22;10902;48.158;8.634;2022-12-22T01:11:29;6.40;99.90
21481;DHT22;10902;48.158;8.634;2022-12-22T01:14:15;6.30;99.90
21481;DHT22;10902;48.158;8.634;2022-12-22T01:16:59;6.30;99.90
21481;DHT22;10902;48.158;8.634;2022-12-22T01:19:44;6.20;99.90
21481;DHT22;10902;48.158;8.634;2022-12-22T01:22:28;6.20;99.90
21481;DHT22;10902;48.158;8.634;2022-12-22T01:25:19;6.20;99.90
21481;DHT22;10902;48.158;8.634;2022-12-22T01:28:03;6.30;99.90
21481;DHT22;10902;48.158;8.634;2022-12-22T01:30:47;6.30;99.90
21481;DHT22;10902;48.158;8.634;2022-12-22T01:33:32;6.30;99.90
21481;DHT22;10902;48.158;8.634;2022-12-22T01:36:16;6.30;99.90
21481;DHT22;10902;48.158;8.634;2022-12-22T01:39:01;6.30;99.90
21481;DHT22;10902;48.158;8.634;2022-12-22T01:41:45;6.40;99.90
21481;DHT22;10902;48.158;8.634;2022-12-22T01:44:30;6.30;99.90
21481;DHT22;10902;48.158;8.634;2022-12-22T01:47:33;6.40;99.90
21481;DHT22;10902;48.158;8.634;2022-12-22T01:50:31;6.40;99.90
21481;DHT22;10902;48.158;8.634;2022-12-22T01:53:21;6.40;99.90
21481;DHT22;10902;48.158;8.634;2022-12-22T01:56:07;6.50;99.90
21481;DHT22;10902;48.158;8.634;2022-12-22T01:58:54;6.50;99.90
21481;DHT22;10902;48.158;8.634;2022-12-22T02:01:40;6.60;99.90
21481;DHT22;10902;48.158;8.634;2022-12-22T02:04:31;6.60;99.90
21481;DHT22;10902;48.158;8.634;2022-12-22T02:10:53;6.70;99.90
21481;DHT22;10902;48.158;8.634;2022-12-22T02:23:06;6.70;99.90
21481;DHT22;10902;48.158;8.634;2022-12-22T02:26:16;6.70;99.90
21481;DHT22;10902;48.158;8.634;2022-12-22T02:29:02;6.80;99.90
21481;DHT22;10902;48.158;8.634;2022-12-22T02:31:48;6.80;99.90
21481;DHT22;10902;48.158;8.634;2022-12-22T02:34:32;6.80;99.90
21481;DHT22;10902;48.158;8.634;2022-12-22T02:37:24;6.70;99.90
21481;DHT22;10902;48.158;8.634;2022-12-22T02:49:14;6.70;99.90
21481;DHT22;10902;48.158;8.634;2022-12-22T02:55:18;6.80;99.90
21481;DHT22;10902;48.158;8.634;2022-12-22T02:58:03;6.80;99.90
21481;DHT22;10902;48.158;8.634;2022-12-22T03:00:47;6.80;99.90
21481;DHT22;10902;48.158;8.634;2022-12-22T03:03:32;6.80;99.90
21481;DHT22;10902;48.158;8.634;2022-12-22T03:06:16;6.80;99.90
21481;DHT22;10902;48.158;8.634;2022-12-22T03:09:00;6.70;99.90
21481;DHT22;10902;48.158;8.634;2022-12-22T03:11:44;6.60;99.90
21481;DHT22;10902;48.158;8.634;2022-12-22T03:14:28;6.60;99.90
21481;DHT22;10902;48.158;8.634;2022-12-22T03:17:12;6.70;99.90
21481;DHT22;10902;48.158;8.634;2022-12-22T03:19:56;6.70;99.90
21481;DHT22;10902;48.158;8.634;2022-12-22T03:22:40;6.70;99.90
21481;DHT22;10902;48.158;8.634;2022-12-22T03:25:24;6.80;99.90
21481;DHT22;10902;48.158;8.634;2022-12-22T03:28:09;6.70;99.90
21481;DHT22;10902;48.158;8.634;2022-12-22T03:30:36;6.80;99.90
21481;DHT22;10902;48.158;8.634;2022-12-22T03:33:02;6.90;99.90
21481;DHT22;10902;48.158;8.634;2022-12-22T03:35:27;6.80;99.90
21481;DHT22;10902;48.158;8.634;2022-12-22T03:37:53;6.80;99.90
21481;DHT22;10902;48.158;8.634;2022-12-22T03:40:19;6.80;99.90
21481;DHT22;10902;48.158;8.634;2022-12-22T03:42:44;6.80;99.90
21481;DHT22;10902;48.158;8.634;2022-12-22T03:45:28;6.80;99.90
21481;DHT22;10902;48.158;8.634;2022-12-22T03:48:12;6.90;99.90
21481;DHT22;10902;48.158;8.634;2022-12-22T03:50:38;6.90;99.90
21481;DHT22;10902;48.158;8.634;2022-12-22T03:53:04;6.80;99.90
21481;DHT22;10902;48.158;8.634;2022-12-22T03:55:30;6.90;99.90
21481;DHT22;10902;48.158;8.634;2022-12-22T03:57:55;6.90;99.90
21481;DHT22;10902;48.158;8.634;2022-12-22T04:00:21;6.90;99.90
21481;DHT22;10902;48.158;8.634;2022-12-22T04:02:47;6.90;99.90
21481;DHT22;10902;48.158;8.634;2022-12-22T04:05:12;7.00;99.90
21481;DHT22;10902;48.158;8.634;2022-12-22T04:07:38;7.00;99.90
21481;DHT22;10902;48.158;8.634;2022-12-22T04:10:04;7.00;99.90
21481;DHT22;10902;48.158;8.634;2022-12-22T04:12:51;7.00;99.90
21481;DHT22;10902;48.158;8.634;2022-12-22T04:15:27;6.90;99.90
21481;DHT22;10902;48.158;8.634;2022-12-22T04:17:54;7.00;99.90
21481;DHT22;10902;48.158;8.634;2022-12-22T04:20:21;7.00;99.90
21481;DHT22;10902;48.158;8.634;2022-12-22T04:22:47;7.10;99.90
21481;DHT22;10902;48.158;8.634;2022-12-22T04:25:13;7.20;99.90
21481;DHT22;10902;48.158;8.634;2022-12-22T04:27:39;7.20;99.90
21481;DHT22;10902;48.158;8.634;2022-12-22T04:30:06;7.20;99.90
21481;DHT22;10902;48.158;8.634;2022-12-22T04:32:31;7.20;99.90
21481;DHT22;10902;48.158;8.634;2022-12-22T04:34:57;7.30;99.90
21481;DHT22;10902;48.158;8.634;2022-12-22T04:37:23;7.30;99.90
21481;DHT22;10902;48.158;8.634;2022-12-22T04:39:48;7.30;99.90
21481;DHT22;10902;48.158;8.634;2022-12-22T04:42:14;7.30;99.90
21481;DHT22;10902;48.158;8.634;2022-12-22T04:44:39;7.20;99.90
21481;DHT22;10902;48.158;8.634;2022-12-22T04:47:05;7.30;99.90
21481;DHT22;10902;48.158;8.634;2022-12-22T04:49:30;7.30;99.90
21481;DHT22;10902;48.158;8.634;2022-12-22T04:51:56;7.30;99.90
21481;DHT22;10902;48.158;8.634;2022-12-22T04:54:21;7.40;99.90
21481;DHT22;10902;48.158;8.634;2022-12-22T04:56:47;7.40;99.90
21481;DHT22;10902;48.158;8.634;2022-12-22T04:59:12;7.40;99.90
21481;DHT22;10902;48.158;8.634;2022-12-22T05:01:38;7.40;99.90
21481;DHT22;10902;48.158;8.634;2022-12-22T05:04:04;7.40;99.90
21481;DHT22;10902;48.158;8.634;2022-12-22T05:06:29;7.50;99.90
21481;DHT22;10902;48.158;8.634;2022-12-22T05:08:55;7.50;99.90
21481;DHT22;10902;48.158;8.634;2022-12-22T05:11:20;7.50;99.90
21481;DHT22;10902;48.158;8.634;2022-12-22T05:13:46;7.60;99.90
21481;DHT22;10902;48.158;8.634;2022-12-22T05:16:15;7.60;99.90
21481;DHT22;10902;48.158;8.634;2022-12-22T05:18:44;7.60;99.90
21481;DHT22;10902;48.158;8.634;2022-12-22T05:21:15;7.70;99.90
21481;DHT22;10902;48.158;8.634;2022-12-22T05:23:42;7.70;99.90
21481;DHT22;10902;48.158;8.634;2022-12-22T05:26:08;7.80;99.90
21481;DHT22;10902;48.158;8.634;2022-12-22T05:28:34;7.80;99.90
21481;DHT22;10902;48.158;8.634;2022-12-22T05:31:08;7.80;99.90
21481;DHT22;10902;48.158;8.634;2022-12-22T05:33:34;7.90;99.90
21481;DHT22;10902;48.158;8.634;2022-12-22T05:36:00;7.90;99.90
21481;DHT22;10902;48.158;8.634;2022-12-22T05:38:25;8.00;99.90
21481;DHT22;10902;48.158;8.634;2022-12-22T05:40:51;7.90;99.90
21481;DHT22;10902;48.158;8.634;2022-12-22T05:43:16;8.00;99.90
21481;DHT22;10902;48.158;8.634;2022-12-22T05:45:46;8.10;99.90
21481;DHT22;10902;48.158;8.634;2022-12-22T05:48:11;8.10;99.90
21481;DHT22;10902;48.158;8.634;2022-12-22T05:50:38;8.00;99.90
21481;DHT22;10902;48.158;8.634;2022-12-22T05:53:05;7.80;99.90
21481;DHT22;10902;48.158;8.634;2022-12-22T05:55:31;7.80;99.90
21481;DHT22;10902;48.158;8.634;2022-12-22T05:57:56;7.80;99.90
21481;DHT22;10902;48.158;8.634;2022-12-22T06:00:26;7.90;99.90
21481;DHT22;10902;48.158;8.634;2022-12-22T06:02:52;8.00;99.90
21481;DHT22;10902;48.158;8.634;2022-12-22T06:05:18;8.10;99.90
21481;DHT22;10902;48.158;8.634;2022-12-22T06:07:43;8.20;99.90
21481;DHT22;10902;48.158;8.634;2022-12-22T06:10:10;8.30;99.90
21481;DHT22;10902;48.158;8.634;2022-12-22T06:12:36;8.00;99.90
21481;DHT22;10902;48.158;8.634;2022-12-22T06:15:01;7.80;99.90
21481;DHT22;10902;48.158;8.634;2022-12-22T06:17:27;7.80;99.90
21481;DHT22;10902;48.158;8.634;2022-12-22T06:19:53;7.80;99.90
21481;DHT22;10902;48.158;8.634;2022-12-22T06:22:18;7.60;99.90
21481;DHT22;10902;48.158;8.634;2022-12-22T06:24:44;7.70;99.90
21481;DHT22;10902;48.158;8.634;2022-12-22T06:27:09;7.80;99.90
21481;DHT22;10902;48.158;8.634;2022-12-22T06:29:36;7.80;99.90
21481;DHT22;10902;48.158;8.634;2022-12-22T06:32:02;7.80;99.90
21481;DHT22;10902;48.158;8.634;2022-12-22T06:34:27;7.80;99.90
21481;DHT22;10902;48.158;8.634;2022-12-22T06:36:53;7.70;99.90
21481;DHT22;10902;48.158;8.634;2022-12-22T06:39:19;7.70;99.90
21481;DHT22;10902;48.158;8.634;2022-12-22T06:41:44;7.80;99.90
21481;DHT22;10902;48.158;8.634;2022-12-22T06:44:48;7.80;99.90
21481;DHT22;10902;48.158;8.634;2022-12-22T06:47:15;7.80;99.90
21481;DHT22;10902;48.158;8.634;2022-12-22T06:49:41;7.80;99.90
21481;DHT22;10902;48.158;8.634;2022-12-22T06:52:07;8.00;99.90
21481;DHT22;10902;48.158;8.634;2022-12-22T06:54:33;8.00;99.90
21481;DHT22;10902;48.158;8.634;2022-12-22T06:56:59;7.90;99.90
21481;DHT22;10902;48.158;8.634;2022-12-22T06:59:25;7.80;99.90
21481;DHT22;10902;48.158;8.634;2022-12-22T07:01:50;7.90;99.90
21481;DHT22;10902;48.158;8.634;2022-12-22T07:04:16;7.90;99.90
21481;DHT22;10902;48.158;8.634;2022-12-22T07:06:45;8.00;99.90
21481;DHT22;10902;48.158;8.634;2022-12-22T07:09:11;8.00;99.90
21481;DHT22;10902;48.158;8.634;2022-12-22T07:11:37;8.30;99.90
21481;DHT22;10902;48.158;8.634;2022-12-22T07:14:02;8.10;99.90
21481;DHT22;10902;48.158;8.634;2022-12-22T07:16:28;8.20;99.90
21481;DHT22;10902;48.158;8.634;2022-12-22T07:18:53;8.40;99.90
21481;DHT22;10902;48.158;8.634;2022-12-22T07:21:19;8.50;99.90
21481;DHT22;10902;48.158;8.634;2022-12-22T07:23:44;8.60;99.90
21481;DHT22;10902;48.158;8.634;2022-12-22T07:26:11;8.70;99.90
21481;DHT22;10902;48.158;8.634;2022-12-22T07:28:39;8.90;99.90
21481;DHT22;10902;48.158;8.634;2022-12-22T07:31:06;9.00;99.90
21481;DHT22;10902;48.158;8.634;2022-12-22T07:33:32;9.00;99.90
21481;DHT22;10902;48.158;8.634;2022-12-22T07:38:32;9.10;99.90
21481;DHT22;10902;48.158;8.634;2022-12-22T07:40:58;9.10;99.90
21481;DHT22;10902;48.158;8.634;2022-12-22T07:43:24;9.10;99.90
21481;DHT22;10902;48.158;8.634;2022-12-22T07:45:50;8.70;99.90
21481;DHT22;10902;48.158;8.634;2022-12-22T07:48:16;8.60;99.90
21481;DHT22;10902;48.158;8.634;2022-12-22T07:51:03;8.60;99.90
21481;DHT22;10902;48.158;8.634;2022-12-22T07:53:29;8.60;99.90
21481;DHT22;10902;48.158;8.634;2022-12-22T07:55:54;8.80;99.90
21481;DHT22;10902;48.158;8.634;2022-12-22T07:58:22;8.80;99.90
21481;DHT22;10902;48.158;8.634;2022-12-22T08:00:48;9.00;99.90
21481;DHT22;10902;48.158;8.634;2022-12-22T08:03:30;9.20;99.90
21481;DHT22;10902;48.158;8.634;2022-12-22T08:05:55;9.50;99.90
21481;DHT22;10902;48.158;8.634;2022-12-22T08:08:21;9.60;99.90
21481;DHT22;10902;48.158;8.634;2022-12-22T08:10:47;9.30;99.90
21481;DHT22;10902;48.158;8.634;2022-12-22T08:13:12;8.80;99.90
21481;DHT22;10902;48.158;8.634;2022-12-22T08:15:38;8.30;99.90
21481;DHT22;10902;48.158;8.634;2022-12-22T08:18:05;8.00;99.90
21481;DHT22;10902;48.158;8.634;2022-12-22T08:20:51;7.90;99.90
21481;DHT22;10902;48.158;8.634;2022-12-22T08:23:17;7.80;99.90
21481;DHT22;10902;48.158;8.634;2022-12-22T08:25:47;7.80;99.90
21481;DHT22;10902;48.158;8.634;2022-12-22T08:28:15;7.80;99.90
21481;DHT22;10902;48.158;8.634;2022-12-22T08:30:42;7.90;99.90
21481;DHT22;10902;48.158;8.634;2022-12-22T08:33:08;7.80;99.90
21481;DHT22;10902;48.158;8.634;2022-12-22T08:35:34;7.80;99.90
21481;DHT22;10902;48.158;8.634;2022-12-22T08:37:59;7.90;99.90
21481;DHT22;10902;48.158;8.634;2022-12-22T08:40:27;7.90;99.90
21481;DHT22;10902;48.158;8.634;2022-12-22T08:42:57;7.90;99.90
21481;DHT22;10902;48.158;8.634;2022-12-22T08:47:59;8.30;99.90
21481;DHT22;10902;48.158;8.634;2022-12-22T08:50:25;8.90;99.90
21481;DHT22;10902;48.158;8.634;2022-12-22T08:52:50;8.90;99.90
21481;DHT22;10902;48.158;8.634;2022-12-22T08:55:16;8.90;99.90
21481;DHT22;10902;48.158;8.634;2022-12-22T08:57:41;9.00;99.90
21481;DHT22;10902;48.158;8.634;2022-12-22T09:00:09;9.00;99.90
21481;DHT22;10902;48.158;8.634;2022-12-22T09:02:35;9.40;99.90
21481;DHT22;10902;48.158;8.634;2022-12-22T09:05:00;9.80;99.90
21481;DHT22;10902;48.158;8.634;2022-12-22T09:07:27;9.70;99.90
21481;DHT22;10902;48.158;8.634;2022-12-22T09:09:52;10.00;99.90
21481;DHT22;10902;48.158;8.634;2022-12-22T09:12:19;10.00;99.90
21481;DHT22;10902;48.158;8.634;2022-12-22T09:14:44;9.60;99.90
21481;DHT22;10902;48.158;8.634;2022-12-22T09:17:10;9.70;99.90
21481;DHT22;10902;48.158;8.634;2022-12-22T09:19:36;10.10;99.90
21481;DHT22;10902;48.158;8.634;2022-12-22T09:22:02;10.10;99.90
21481;DHT22;10902;48.158;8.634;2022-12-22T09:24:27;10.00;99.90
21481;DHT22;10902;48.158;8.634;2022-12-22T09:26:53;9.90;99.90
21481;DHT22;10902;48.158;8.634;2022-12-22T09:29:18;9.60;99.90
21481;DHT22;10902;48.158;8.634;2022-12-22T09:31:44;9.20;99.90
21481;DHT22;10902;48.158;8.634;2022-12-22T09:34:09;8.80;99.90
21481;DHT22;10902;48.158;8.634;2022-12-22T09:36:39;8.60;99.90
21481;DHT22;10902;48.158;8.634;2022-12-22T09:39:06;8.40;99.90
21481;DHT22;10902;48.158;8.634;2022-12-22T09:41:34;8.30;99.90
21481;DHT22;10902;48.158;8.634;2022-12-22T09:44:09;8.30;99.90
21481;DHT22;10902;48.158;8.634;2022-12-22T09:46:38;8.30;99.90
21481;DHT22;10902;48.158;8.634;2022-12-22T09:49:05;8.30;99.90
21481;DHT22;10902;48.158;8.634;2022-12-22T09:51:33;8.20;99.90
21481;DHT22;10902;48.158;8.634;2022-12-22T09:54:03;8.20;99.90
21481;DHT22;10902;48.158;8.634;2022-12-22T09:56:29;8.30;99.90
21481;DHT22;10902;48.158;8.634;2022-12-22T09:58:56;8.70;99.90
21481;DHT22;10902;48.158;8.634;2022-12-22T10:04:11;9.60;99.90
21481;DHT22;10902;48.158;8.634;2022-12-22T10:06:50;9.90;99.90
21481;DHT22;10902;48.158;8.634;2022-12-22T10:09:25;9.70;99.90
21481;DHT22;10902;48.158;8.634;2022-12-22T10:11:59;9.80;99.90
21481;DHT22;10902;48.158;8.634;2022-12-22T10:14:32;9.80;99.90
21481;DHT22;10902;48.158;8.634;2022-12-22T10:19:40;9.60;99.90
21481;DHT22;10902;48.158;8.634;2022-12-22T10:22:32;9.50;99.90
21481;DHT22;10902;48.158;8.634;2022-12-22T10:25:03;9.60;99.90
21481;DHT22;10902;48.158;8.634;2022-12-22T10:27:32;9.90;99.90
21481;DHT22;10902;48.158;8.634;2022-12-22T10:30:37;9.60;99.90
21481;DHT22;10902;48.158;8.634;2022-12-22T10:33:10;9.10;99.90
21481;DHT22;10902;48.158;8.634;2022-12-22T10:35:48;8.90;99.90
21481;DHT22;10902;48.158;8.634;2022-12-22T10:40:46;9.20;99.90
21481;DHT22;10902;48.158;8.634;2022-12-22T10:43:44;9.50;99.90
21481;DHT22;10902;48.158;8.634;2022-12-22T10:46:12;10.00;99.90
21481;DHT22;10902;48.158;8.634;2022-12-22T10:48:38;10.20;99.90
21481;DHT22;10902;48.158;8.634;2022-12-22T10:51:06;10.00;99.90
21481;DHT22;10902;48.158;8.634;2022-12-22T10:53:52;9.90;99.90
21481;DHT22;10902;48.158;8.634;2022-12-22T10:56:30;9.60;99.90
21481;DHT22;10902;48.158;8.634;2022-12-22T11:01:33;9.70;99.90
21481;DHT22;10902;48.158;8.634;2022-12-22T11:04:22;9.80;99.90
21481;DHT22;10902;48.158;8.634;2022-12-22T11:06:49;9.70;99.90
21481;DHT22;10902;48.158;8.634;2022-12-22T11:09:16;9.70;99.90
21481;DHT22;10902;48.158;8.634;2022-12-22T11:11:49;9.80;99.90
21481;DHT22;10902;48.158;8.634;2022-12-22T11:17:08;9.90;99.90
21481;DHT22;10902;48.158;8.634;2022-12-22T11:22:16;11.10;99.90
21481;DHT22;10902;48.158;8.634;2022-12-22T11:28:01;12.10;99.90
21481;DHT22;10902;48.158;8.634;2022-12-22T11:35:51;12.10;99.90
21481;DHT22;10902;48.158;8.634;2022-12-22T11:41:33;11.70;99.90
21481;DHT22;10902;48.158;8.634;2022-12-22T11:44:36;12.20;99.90
21481;DHT22;10902;48.158;8.634;2022-12-22T11:50:39;11.50;99.90
21481;DHT22;10902;48.158;8.634;2022-12-22T11:56:44;10.80;99.90
21481;DHT22;10902;48.158;8.634;2022-12-22T11:59:35;10.70;99.90
21481;DHT22;10902;48.158;8.634;2022-12-22T12:07:51;10.30;99.90
21481;DHT22;10902;48.158;8.634;2022-12-22T12:10:50;10.30;99.90
21481;DHT22;10902;48.158;8.634;2022-12-22T12:19:32;9.40;99.90
21481;DHT22;10902;48.158;8.634;2022-12-22T12:22:07;9.10;99.90
21481;DHT22;10902;48.158;8.634;2022-12-22T12:29:43;9.30;99.90
21481;DHT22;10902;48.158;8.634;2022-12-22T12:32:17;9.20;99.90
21481;DHT22;10902;48.158;8.634;2022-12-22T12:34:46;9.30;99.90
21481;DHT22;10902;48.158;8.634;2022-12-22T12:42:33;9.90;99.90
21481;DHT22;10902;48.158;8.634;2022-12-22T12:45:00;9.70;99.90
21481;DHT22;10902;48.158;8.634;2022-12-22T12:47:29;9.90;99.90
21481;DHT22;10902;48.158;8.634;2022-12-22T12:57:55;10.00;99.90
21481;DHT22;10902;48.158;8.634;2022-12-22T13:05:47;11.30;99.90
21481;DHT22;10902;48.158;8.634;2022-12-22T13:08:23;11.20;99.90
21481;DHT22;10902;48.158;8.634;2022-12-22T13:18:42;10.10;99.90
21481;DHT22;10902;48.158;8.634;2022-12-22T13:21:14;10.00;99.90
21481;DHT22;10902;48.158;8.634;2022-12-22T13:23:44;9.90;99.90
21481;DHT22;10902;48.158;8.634;2022-12-22T13:26:15;9.80;99.90
21481;DHT22;10902;48.158;8.634;2022-12-22T13:28:51;9.70;99.90
21481;DHT22;10902;48.158;8.634;2022-12-22T13:31:35;9.90;99.90
21481;DHT22;10902;48.158;8.634;2022-12-22T13:34:29;10.30;99.90
21481;DHT22;10902;48.158;8.634;2022-12-22T13:36:58;10.20;99.90
21481;DHT22;10902;48.158;8.634;2022-12-22T13:39:25;10.00;99.90
21481;DHT22;10902;48.158;8.634;2022-12-22T13:41:51;9.90;99.90
21481;DHT22;10902;48.158;8.634;2022-12-22T13:44:19;9.90;99.90
21481;DHT22;10902;48.158;8.634;2022-12-22T13:46:48;9.80;99.90
21481;DHT22;10902;48.158;8.634;2022-12-22T13:49:16;9.80;99.90
21481;DHT22;10902;48.158;8.634;2022-12-22T13:51:42;9.80;99.90
21481;DHT22;10902;48.158;8.634;2022-12-22T13:54:28;9.70;99.90
21481;DHT22;10902;48.158;8.634;2022-12-22T13:56:55;9.80;99.90
21481;DHT22;10902;48.158;8.634;2022-12-22T13:59:30;10.10;99.90
21481;DHT22;10902;48.158;8.634;2022-12-22T14:02:00;10.50;99.90
21481;DHT22;10902;48.158;8.634;2022-12-22T14:04:27;11.00;99.90
21481;DHT22;10902;48.158;8.634;2022-12-22T14:06:53;10.70;99.90
21481;DHT22;10902;48.158;8.634;2022-12-22T14:09:25;10.40;99.90
21481;DHT22;10902;48.158;8.634;2022-12-22T14:14:45;10.10;99.90
21481;DHT22;10902;48.158;8.634;2022-12-22T14:17:27;10.50;99.90
21481;DHT22;10902;48.158;8.634;2022-12-22T14:20:26;10.30;99.90
21481;DHT22;10902;48.158;8.634;2022-12-22T14:23:10;10.10;99.90
21481;DHT22;10902;48.158;8.634;2022-12-22T14:25:41;9.90;99.90
21481;DHT22;10902;48.158;8.634;2022-12-22T14:28:38;9.70;99.90
21481;DHT22;10902;48.158;8.634;2022-12-22T14:31:07;9.60;99.90
21481;DHT22;10902;48.158;8.634;2022-12-22T14:33:36;9.40;99.90
21481;DHT22;10902;48.158;8.634;2022-12-22T14:38:38;9.30;99.90
21481;DHT22;10902;48.158;8.634;2022-12-22T14:41:24;9.30;99.90
21481;DHT22;10902;48.158;8.634;2022-12-22T14:46:42;9.30;99.90
21481;DHT22;10902;48.158;8.634;2022-12-22T14:49:17;9.30;99.90
21481;DHT22;10902;48.158;8.634;2022-12-22T14:51:53;9.20;99.90
21481;DHT22;10902;48.158;8.634;2022-12-22T14:54:23;9.30;99.90
21481;DHT22;10902;48.158;8.634;2022-12-22T14:56:50;9.20;99.90
21481;DHT22;10902;48.158;8.634;2022-12-22T14:59:27;9.20;99.90
21481;DHT22;10902;48.158;8.634;2022-12-22T15:02:02;9.30;99.90
21481;DHT22;10902;48.158;8.634;2022-12-22T15:04:28;9.20;99.90
21481;DHT22;10902;48.158;8.634;2022-12-22T15:07:13;9.20;99.90
21481;DHT22;10902;48.158;8.634;2022-12-22T15:09:40;9.10;99.90
21481;DHT22;10902;48.158;8.634;2022-12-22T15:12:10;9.20;99.90
21481;DHT22;10902;48.158;8.634;2022-12-22T15:14:37;9.10;99.90
21481;DHT22;10902;48.158;8.634;2022-12-22T15:17:04;9.00;99.90
21481;DHT22;10902;48.158;8.634;2022-12-22T15:19:32;9.00;99.90
21481;DHT22;10902;48.158;8.634;2022-12-22T15:21:59;9.00;99.90
21481;DHT22;10902;48.158;8.634;2022-12-22T15:24:24;9.00;99.90
21481;DHT22;10902;48.158;8.634;2022-12-22T15:26:50;9.00;99.90
21481;DHT22;10902;48.158;8.634;2022-12-22T15:29:16;9.00;99.90
21481;DHT22;10902;48.158;8.634;2022-12-22T15:31:42;9.10;99.90
21481;DHT22;10902;48.158;8.634;2022-12-22T15:34:23;9.00;99.90
21481;DHT22;10902;48.158;8.634;2022-12-22T15:36:50;9.10;99.90
21481;DHT22;10902;48.158;8.634;2022-12-22T15:39:17;9.10;99.90
21481;DHT22;10902;48.158;8.634;2022-12-22T15:41:43;9.00;99.90
21481;DHT22;10902;48.158;8.634;2022-12-22T15:44:10;9.00;99.90
21481;DHT22;10902;48.158;8.634;2022-12-22T15:46:36;8.90;99.90
21481;DHT22;10902;48.158;8.634;2022-12-22T15:49:02;8.80;99.90
21481;DHT22;10902;48.158;8.634;2022-12-22T15:51:29;8.80;99.90
21481;DHT22;10902;48.158;8.634;2022-12-22T15:53:57;8.70;99.90
21481;DHT22;10902;48.158;8.634;2022-12-22T15:56:25;8.70;99.90
21481;DHT22;10902;48.158;8.634;2022-12-22T15:58:51;8.70;99.90
21481;DHT22;10902;48.158;8.634;2022-12-22T16:01:17;8.60;99.90
21481;DHT22;10902;48.158;8.634;2022-12-22T16:03:43;8.60;99.90
21481;DHT22;10902;48.158;8.634;2022-12-22T16:06:12;8.60;99.90
21481;DHT22;10902;48.158;8.634;2022-12-22T16:08:40;8.50;99.90
21481;DHT22;10902;48.158;8.634;2022-12-22T16:11:07;8.40;99.90
21481;DHT22;10902;48.158;8.634;2022-12-22T16:13:35;8.40;99.90
21481;DHT22;10902;48.158;8.634;2022-12-22T16:16:01;8.50;99.90
21481;DHT22;10902;48.158;8.634;2022-12-22T16:18:26;8.40;99.90
21481;DHT22;10902;48.158;8.634;2022-12-22T16:20:52;8.50;99.90
21481;DHT22;10902;48.158;8.634;2022-12-22T16:23:22;8.50;99.90
21481;DHT22;10902;48.158;8.634;2022-12-22T16:25:48;8.50;99.90
21481;DHT22;10902;48.158;8.634;2022-12-22T16:28:20;8.50;99.90
21481;DHT22;10902;48.158;8.634;2022-12-22T16:30:46;8.60;99.90
21481;DHT22;10902;48.158;8.634;2022-12-22T16:33:12;8.50;99.90
21481;DHT22;10902;48.158;8.634;2022-12-22T16:35:39;8.40;99.90
21481;DHT22;10902;48.158;8.634;2022-12-22T16:38:04;8.50;99.90
21481;DHT22;10902;48.158;8.634;2022-12-22T16:40:31;8.40;99.90
21481;DHT22;10902;48.158;8.634;2022-12-22T16:45:26;8.20;99.90
21481;DHT22;10902;48.158;8.634;2022-12-22T16:47:52;8.20;99.90
21481;DHT22;10902;48.158;8.634;2022-12-22T16:50:24;8.20;99.90
21481;DHT22;10902;48.158;8.634;2022-12-22T16:53:00;8.10;99.90
21481;DHT22;10902;48.158;8.634;2022-12-22T16:55:27;8.20;99.90
21481;DHT22;10902;48.158;8.634;2022-12-22T16:57:53;8.20;99.90
21481;DHT22;10902;48.158;8.634;2022-12-22T17:00:21;8.20;99.90
21481;DHT22;10902;48.158;8.634;2022-12-22T17:02:54;8.30;99.90
21481;DHT22;10902;48.158;8.634;2022-12-22T17:05:33;8.20;99.90
21481;DHT22;10902;48.158;8.634;2022-12-22T17:08:00;8.10;99.90
21481;DHT22;10902;48.158;8.634;2022-12-22T17:10:27;8.10;99.90
21481;DHT22;10902;48.158;8.634;2022-12-22T17:12:54;8.00;99.90
21481;DHT22;10902;48.158;8.634;2022-12-22T17:15:21;8.10;99.90
21481;DHT22;10902;48.158;8.634;2022-12-22T17:17:48;8.20;99.90
21481;DHT22;10902;48.158;8.634;2022-12-22T17:20:16;8.10;99.90
21481;DHT22;10902;48.158;8.634;2022-12-22T17:22:48;8.30;99.90
21481;DHT22;10902;48.158;8.634;2022-12-22T17:25:23;8.30;99.90
21481;DHT22;10902;48.158;8.634;2022-12-22T17:27:50;8.30;99.90
21481;DHT22;10902;48.158;8.634;2022-12-22T17:30:18;8.30;99.90
21481;DHT22;10902;48.158;8.634;2022-12-22T17:32:44;8.20;99.90
21481;DHT22;10902;48.158;8.634;2022-12-22T17:35:18;8.20;99.90
21481;DHT22;10902;48.158;8.634;2022-12-22T17:37:45;8.20;99.90
21481;DHT22;10902;48.158;8.634;2022-12-22T17:42:47;8.30;99.90
21481;DHT22;10902;48.158;8.634;2022-12-22T17:45:14;8.40;99.90
21481;DHT22;10902;48.158;8.634;2022-12-22T17:47:40;8.30;99.90
21481;DHT22;10902;48.158;8.634;2022-12-22T17:50:13;8.20;99.90
21481;DHT22;10902;48.158;8.634;2022-12-22T17:52:40;8.10;99.90
21481;DHT22;10902;48.158;8.634;2022-12-22T17:55:20;8.00;99.90
21481;DHT22;10902;48.158;8.634;2022-12-22T17:57:46;8.10;99.90
21481;DHT22;10902;48.158;8.634;2022-12-22T18:00:20;8.00;99.90
21481;DHT22;10902;48.158;8.634;2022-12-22T18:02:46;8.00;99.90
21481;DHT22;10902;48.158;8.634;2022-12-22T18:05:13;7.90;99.90
21481;DHT22;10902;48.158;8.634;2022-12-22T18:07:39;7.80;99.90
21481;DHT22;10902;48.158;8.634;2022-12-22T18:10:06;7.80;99.90
21481;DHT22;10902;48.158;8.634;2022-12-22T18:12:32;7.70;99.90
21481;DHT22;10902;48.158;8.634;2022-12-22T18:14:58;7.70;99.90
21481;DHT22;10902;48.158;8.634;2022-12-22T18:17:29;7.70;99.90
21481;DHT22;10902;48.158;8.634;2022-12-22T18:19:55;7.70;99.90